createdAt,value
2018-11-26T00:01:59.045Z,96071.13
2018-11-26T00:04:30.122Z,96067.31
2018-11-26T00:07:01.218Z,96069.41
2018-11-26T00:09:32.147Z,96068.24
2018-11-26T00:12:04.309Z,96065.21
2018-11-26T00:14:35.526Z,96054.61
2018-11-26T00:17:06.583Z,96061.33
2018-11-26T00:19:37.637Z,96055.36
2018-11-26T00:22:08.825Z,96040.52
2018-11-26T00:24:40.067Z,96053.00
2018-11-26T00:27:11.093Z,96050.39
2018-11-26T00:29:42.374Z,96043.95
2018-11-26T00:32:13.454Z,96042.73
2018-11-26T00:34:44.752Z,96039.30
2018-11-26T00:37:15.852Z,96037.17
2018-11-26T00:39:47.519Z,96035.02
2018-11-26T00:42:18.661Z,96026.94
2018-11-26T00:44:49.594Z,96029.03
2018-11-26T00:47:20.766Z,96015.02
2018-11-26T00:49:52.036Z,96021.44
2018-11-26T00:52:23.117Z,96020.58
2018-11-26T00:54:54.238Z,96029.03
2018-11-26T00:57:25.182Z,96014.55
2018-11-26T00:59:56.272Z,96020.45
2018-11-26T01:02:27.380Z,96020.43
2018-11-26T01:04:59.274Z,96023.34
2018-11-26T01:07:30.433Z,96014.39
2018-11-26T01:10:01.879Z,96020.31
2018-11-26T01:12:32.879Z,96022.52
2018-11-26T01:15:04.062Z,96020.36
2018-11-26T01:17:35.359Z,96019.04
2018-11-26T01:20:06.937Z,96027.97
2018-11-26T01:22:38.373Z,96030.51
2018-11-26T01:25:09.650Z,96026.27
2018-11-26T01:27:40.793Z,96027.09
2018-11-26T01:30:12.369Z,96028.38
2018-11-26T01:32:43.562Z,96025.69
2018-11-26T01:35:14.618Z,96027.02
2018-11-26T01:37:45.760Z,96021.05
2018-11-26T01:40:43.797Z,96022.39
2018-11-26T01:43:15.431Z,96018.48
2018-11-26T01:45:46.695Z,96023.61
2018-11-26T01:48:17.851Z,96022.37
2018-11-26T01:50:48.985Z,96025.33
2018-11-26T01:53:20.120Z,96024.41
2018-11-26T01:55:51.177Z,96021.71
2018-11-26T01:58:22.357Z,96027.75
2018-11-26T02:00:53.381Z,96026.02
2018-11-26T02:03:24.835Z,96025.28
2018-11-26T02:05:56.871Z,96026.53
2018-11-26T02:08:28.047Z,96027.22
2018-11-26T02:10:59.222Z,96032.79
2018-11-26T02:13:30.419Z,96024.59
2018-11-26T02:16:01.781Z,96024.12
2018-11-26T02:18:32.797Z,96019.89
2018-11-26T02:21:04.058Z,96020.77
2018-11-26T02:23:35.317Z,96017.83
2018-11-26T02:26:06.636Z,96024.58
2018-11-26T02:28:37.920Z,96033.89
2018-11-26T02:31:09.059Z,96031.77
2018-11-26T02:33:40.318Z,96022.78
2018-11-26T02:36:11.376Z,96032.16
2018-11-26T02:38:42.646Z,96025.45
2018-11-26T02:41:13.864Z,96021.64
2018-11-26T02:43:45.043Z,96024.52
2018-11-26T02:46:16.284Z,96021.17
2018-11-26T02:48:47.481Z,96019.50
2018-11-26T02:51:18.602Z,96016.08
2018-11-26T02:53:49.788Z,96019.41
2018-11-26T02:56:20.793Z,96014.37
2018-11-26T02:58:51.803Z,96015.65
2018-11-26T03:01:23.054Z,96016.88
2018-11-26T03:03:54.087Z,96011.31
2018-11-26T03:06:25.334Z,96013.38
2018-11-26T03:08:57.805Z,96010.48
2018-11-26T03:11:28.854Z,96005.32
2018-11-26T03:13:59.994Z,96013.83
2018-11-26T03:16:31.354Z,96015.13
2018-11-26T03:19:02.551Z,96016.38
2018-11-26T03:21:33.692Z,96010.42
2018-11-26T03:24:04.858Z,96015.11
2018-11-26T03:26:35.967Z,96019.34
2018-11-26T03:29:07.173Z,96012.56
2018-11-26T03:31:38.323Z,96016.80
2018-11-26T03:34:09.416Z,96016.78
2018-11-26T03:36:40.387Z,96008.13
2018-11-26T03:39:11.539Z,96011.14
2018-11-26T03:41:42.622Z,96018.78
2018-11-26T03:44:13.640Z,96013.64
2018-11-26T03:46:44.850Z,96006.04
2018-11-26T03:49:15.778Z,96001.02
2018-11-26T03:51:46.851Z,96006.95
2018-11-26T03:54:17.879Z,96004.32
2018-11-26T03:56:48.963Z,96002.64
2018-11-26T03:59:19.947Z,96003.09
2018-11-26T04:01:50.895Z,95997.95
2018-11-26T04:04:21.894Z,95989.08
2018-11-26T04:06:52.893Z,95978.03
2018-11-26T04:09:23.929Z,95986.11
2018-11-26T04:11:54.989Z,95978.47
2018-11-26T04:14:26.405Z,95982.30
2018-11-26T04:16:57.404Z,95981.09
2018-11-26T04:19:28.422Z,95984.45
2018-11-26T04:21:59.575Z,95978.49
2018-11-26T04:24:30.684Z,95980.63
2018-11-26T04:27:01.838Z,95975.48
2018-11-26T04:29:32.868Z,95981.09
2018-11-26T04:32:03.876Z,95973.72
2018-11-26T04:34:35.134Z,95985.64
2018-11-26T04:37:06.488Z,95974.20
2018-11-26T04:39:37.581Z,95988.22
2018-11-26T04:42:08.927Z,95984.86
2018-11-26T04:44:40.014Z,95988.22
2018-11-26T04:47:11.119Z,95985.64
2018-11-26T04:49:42.193Z,95989.42
2018-11-26T04:52:13.430Z,95993.70
2018-11-26T04:54:44.895Z,95998.00
2018-11-26T04:57:15.931Z,96000.14
2018-11-26T04:59:46.914Z,95997.12
2018-11-26T05:02:18.060Z,95998.06
2018-11-26T05:04:49.161Z,95993.30
2018-11-26T05:07:20.194Z,95993.44
2018-11-26T05:09:51.327Z,95987.88
2018-11-26T05:12:22.313Z,95990.45
2018-11-26T05:14:53.471Z,95990.84
2018-11-26T05:17:24.571Z,95986.61
2018-11-26T05:19:55.662Z,95979.43
2018-11-26T05:22:26.863Z,95982.45
2018-11-26T05:24:57.980Z,95987.88
2018-11-26T05:27:28.976Z,95991.78
2018-11-26T05:30:00.136Z,95986.68
2018-11-26T05:32:31.065Z,95984.18
2018-11-26T05:35:02.050Z,95984.19
2018-11-26T05:37:33.142Z,95981.63
2018-11-26T05:40:04.323Z,95982.03
2018-11-26T05:42:35.510Z,95982.50
2018-11-26T05:45:09.002Z,95981.25
2018-11-26T05:47:40.151Z,95983.78
2018-11-26T05:50:17.380Z,95981.63
2018-11-26T05:52:48.433Z,95989.30
2018-11-26T05:55:19.804Z,95995.28
2018-11-26T05:57:50.926Z,95988.50
2018-11-26T06:00:36.228Z,95995.81
2018-11-26T06:03:07.929Z,95990.70
2018-11-26T06:05:38.845Z,95997.50
2018-11-26T06:08:10.038Z,95996.27
2018-11-26T06:10:41.282Z,95995.33
2018-11-26T06:13:12.475Z,95990.23
2018-11-26T06:15:43.695Z,95996.16
2018-11-26T06:18:15.014Z,96000.09
2018-11-26T06:20:46.285Z,95997.09
2018-11-26T06:23:17.456Z,96000.12
2018-11-26T06:25:48.529Z,95994.59
2018-11-26T06:28:19.442Z,96001.91
2018-11-26T06:30:50.366Z,95993.80
2018-11-26T06:33:21.390Z,96002.25
2018-11-26T06:35:52.395Z,95998.42
2018-11-26T06:38:23.380Z,96002.72
2018-11-26T06:40:54.311Z,96006.13
2018-11-26T06:43:25.264Z,96006.13
2018-11-26T06:45:56.202Z,96016.74
2018-11-26T06:48:27.110Z,96014.20
2018-11-26T06:50:58.033Z,96010.78
2018-11-26T06:53:28.886Z,96019.36
2018-11-26T06:55:59.927Z,96011.31
2018-11-26T06:58:30.866Z,96016.75
2018-11-26T07:01:02.017Z,96023.52
2018-11-26T07:03:32.877Z,96018.81
2018-11-26T07:06:03.922Z,96028.55
2018-11-26T07:08:34.770Z,96025.14
2018-11-26T07:11:06.062Z,96035.31
2018-11-26T07:13:37.138Z,96031.03
2018-11-26T07:16:08.416Z,96032.25
2018-11-26T07:18:39.342Z,96041.23
2018-11-26T07:21:10.378Z,96043.72
2018-11-26T07:23:41.223Z,96049.30
2018-11-26T07:26:12.161Z,96049.75
2018-11-26T07:28:43.017Z,96046.39
2018-11-26T07:31:13.964Z,96046.34
2018-11-26T07:33:44.980Z,96055.27
2018-11-26T07:36:15.911Z,96049.35
2018-11-26T07:38:46.752Z,96048.06
2018-11-26T07:41:17.747Z,96045.53
2018-11-26T07:43:48.666Z,96046.81
2018-11-26T07:46:19.732Z,96046.39
2018-11-26T07:48:50.581Z,96041.31
2018-11-26T07:51:21.615Z,96048.94
2018-11-26T07:53:52.510Z,96049.04
2018-11-26T07:56:23.460Z,96050.36
2018-11-26T07:58:54.357Z,96047.89
2018-11-26T08:01:25.619Z,96050.05
2018-11-26T08:03:56.599Z,96050.91
2018-11-26T08:06:27.629Z,96050.11
2018-11-26T08:08:58.475Z,96050.97
2018-11-26T08:11:29.411Z,96053.53
2018-11-26T08:14:00.334Z,96058.30
2018-11-26T08:16:31.289Z,96060.47
2018-11-26T08:19:02.253Z,96060.98
2018-11-26T08:21:33.185Z,96061.80
2018-11-26T08:24:04.202Z,96061.81
2018-11-26T08:26:35.139Z,96067.45
2018-11-26T08:29:06.809Z,96069.25
2018-11-26T08:31:37.698Z,96065.03
2018-11-26T08:34:08.756Z,96063.81
2018-11-26T08:36:48.153Z,96061.72
2018-11-26T08:39:20.628Z,96070.33
2018-11-26T08:41:54.768Z,96068.66
2018-11-26T08:44:47.064Z,96078.05
2018-11-26T08:47:34.842Z,96080.71
2018-11-26T08:50:05.939Z,96071.27
2018-11-26T08:52:36.951Z,96084.20
2018-11-26T08:55:09.142Z,96082.41
2018-11-26T08:57:40.083Z,96088.38
2018-11-26T09:00:12.657Z,96077.18
2018-11-26T09:02:49.683Z,96087.44
2018-11-26T09:05:37.024Z,96091.39
2018-11-26T09:08:08.097Z,96098.13
2018-11-26T09:10:39.204Z,96098.77
2018-11-26T09:13:10.333Z,96097.91
2018-11-26T09:15:41.266Z,96100.45
2018-11-26T09:18:12.370Z,96099.53
2018-11-26T09:20:43.304Z,96102.61
2018-11-26T09:23:14.309Z,96105.64
2018-11-26T09:25:45.165Z,96103.01
2018-11-26T09:28:16.205Z,96099.65
2018-11-26T09:30:47.298Z,96109.91
2018-11-26T09:33:18.403Z,96097.90
2018-11-26T09:35:49.441Z,96099.55
2018-11-26T09:38:20.365Z,96108.53
2018-11-26T09:40:51.473Z,96102.61
2018-11-26T09:43:22.312Z,96108.53
2018-11-26T09:45:53.163Z,96113.98
2018-11-26T09:48:24.090Z,96109.28
2018-11-26T09:50:55.151Z,96118.20
2018-11-26T09:53:26.086Z,96119.89
2018-11-26T09:55:57.073Z,96113.59
2018-11-26T09:58:28.017Z,96114.37
2018-11-26T10:00:59.122Z,96108.75
2018-11-26T10:03:30.048Z,96114.23
2018-11-26T10:06:00.887Z,96115.06
2018-11-26T10:08:31.770Z,96113.72
2018-11-26T10:11:02.859Z,96113.78
2018-11-26T10:13:33.706Z,96108.80
2018-11-26T10:16:04.723Z,96116.52
2018-11-26T10:18:35.612Z,96100.39
2018-11-26T10:21:06.627Z,96109.20
2018-11-26T10:23:37.603Z,96106.72
2018-11-26T10:26:08.535Z,96113.11
2018-11-26T10:28:39.584Z,96111.29
2018-11-26T10:31:10.523Z,96109.00
2018-11-26T10:33:41.444Z,96107.67
2018-11-26T10:36:12.270Z,96104.66
2018-11-26T10:38:43.109Z,96109.70
2018-11-26T10:41:14.169Z,96115.25
2018-11-26T10:43:45.093Z,96115.61
2018-11-26T10:46:16.239Z,96117.83
2018-11-26T10:48:47.169Z,96119.02
2018-11-26T10:51:18.097Z,96120.79
2018-11-26T10:53:49.020Z,96114.45
2018-11-26T10:56:20.001Z,96116.52
2018-11-26T10:58:50.930Z,96122.64
2018-11-26T11:01:45.466Z,96116.69
2018-11-26T11:04:16.384Z,96114.84
2018-11-26T11:06:47.396Z,96117.54
2018-11-26T11:09:18.334Z,96115.33
2018-11-26T11:11:49.167Z,96119.09
2018-11-26T11:14:19.965Z,96116.15
2018-11-26T11:16:50.776Z,96122.59
2018-11-26T11:19:21.715Z,96119.09
2018-11-26T11:21:52.527Z,96117.69
2018-11-26T11:24:23.366Z,96119.36
2018-11-26T11:26:54.492Z,96122.25
2018-11-26T11:29:25.427Z,96117.40
2018-11-26T11:31:56.371Z,96119.07
2018-11-26T11:34:27.262Z,96112.60
2018-11-26T11:36:58.277Z,96112.84
2018-11-26T11:39:29.416Z,96121.41
2018-11-26T11:42:00.236Z,96120.61
2018-11-26T11:44:31.186Z,96117.25
2018-11-26T11:47:02.017Z,96122.27
2018-11-26T11:49:32.857Z,96114.94
2018-11-26T11:52:03.861Z,96113.24
2018-11-26T11:54:34.965Z,96116.75
2018-11-26T11:57:06.444Z,96119.41
2018-11-26T11:59:37.273Z,96120.75
2018-11-26T12:02:10.079Z,96120.07
2018-11-26T12:04:40.920Z,96124.38
2018-11-26T12:07:11.831Z,96124.33
2018-11-26T12:09:42.852Z,96118.02
2018-11-26T12:12:13.863Z,96109.88
2018-11-26T12:14:44.742Z,96114.59
2018-11-26T12:17:16.004Z,96122.27
2018-11-26T12:19:47.100Z,96116.85
2018-11-26T12:22:18.012Z,96121.05
2018-11-26T12:24:49.111Z,96124.03
2018-11-26T12:27:20.650Z,96120.13
2018-11-26T12:29:51.672Z,96123.69
2018-11-26T12:32:22.565Z,96130.00
2018-11-26T12:34:53.698Z,96127.05
2018-11-26T12:37:24.834Z,96133.80
2018-11-26T12:39:56.040Z,96120.12
2018-11-26T12:42:26.873Z,96126.98
2018-11-26T12:44:57.981Z,96130.86
2018-11-26T12:47:28.917Z,96141.97
2018-11-26T12:49:59.923Z,96134.44
2018-11-26T12:52:31.172Z,96132.22
2018-11-26T12:55:02.017Z,96131.67
2018-11-26T12:57:33.225Z,96135.67
2018-11-26T13:00:04.258Z,96139.48
2018-11-26T13:02:35.120Z,96134.92
2018-11-26T13:05:07.201Z,96137.00
2018-11-26T13:07:38.212Z,96139.11
2018-11-26T13:10:17.228Z,96136.40
2018-11-26T13:12:49.175Z,96131.22
2018-11-26T13:15:24.686Z,96130.47
2018-11-26T13:17:55.621Z,96132.09
2018-11-26T13:20:28.625Z,96136.61
2018-11-26T13:22:59.768Z,96137.25
2018-11-26T13:25:32.600Z,96142.36
2018-11-26T13:28:04.770Z,96141.14
2018-11-26T13:30:46.859Z,96138.59
2018-11-26T13:33:19.680Z,96147.69
2018-11-26T13:35:51.324Z,96151.02
2018-11-26T13:38:22.255Z,96153.28
2018-11-26T13:40:53.441Z,96160.93
2018-11-26T13:43:24.368Z,96159.15
2018-11-26T13:45:55.205Z,96158.76
2018-11-26T13:48:26.162Z,96154.93
2018-11-26T13:50:58.165Z,96160.42
2018-11-26T13:53:29.029Z,96157.88
2018-11-26T13:56:00.192Z,96164.18
2018-11-26T13:58:31.077Z,96162.84
2018-11-26T14:01:01.882Z,96161.23
2018-11-26T14:03:33.106Z,96162.52
2018-11-26T14:06:04.107Z,96176.47
2018-11-26T14:08:34.965Z,96166.73
2018-11-26T14:11:06.048Z,96177.88
2018-11-26T14:13:37.151Z,96176.92
2018-11-26T14:16:08.561Z,96180.27
2018-11-26T14:18:39.408Z,96181.21
2018-11-26T14:21:10.418Z,96181.24
2018-11-26T14:23:41.267Z,96184.58
2018-11-26T14:26:12.701Z,96188.69
2018-11-26T14:28:43.652Z,96189.56
2018-11-26T14:31:15.563Z,96192.06
2018-11-26T14:33:47.037Z,96188.30
2018-11-26T14:36:17.955Z,96193.64
2018-11-26T14:38:48.882Z,96197.45
2018-11-26T14:41:19.903Z,96194.12
2018-11-26T14:43:51.104Z,96199.77
2018-11-26T14:46:22.028Z,96202.70
2018-11-26T14:48:53.044Z,96202.17
2018-11-26T14:51:24.320Z,96206.44
2018-11-26T14:53:55.331Z,96203.50
2018-11-26T14:56:26.243Z,96205.87
2018-11-26T14:58:57.112Z,96205.81
2018-11-26T15:01:28.031Z,96213.03
2018-11-26T15:03:59.053Z,96208.33
2018-11-26T15:06:29.977Z,96213.34
2018-11-26T15:09:00.907Z,96213.05
2018-11-26T15:11:31.838Z,96212.05
2018-11-26T15:14:02.770Z,96217.96
2018-11-26T15:16:33.715Z,96217.94
2018-11-26T15:19:04.731Z,96218.38
2018-11-26T15:21:35.641Z,96219.63
2018-11-26T15:24:06.701Z,96228.16
2018-11-26T15:26:37.619Z,96227.25
2018-11-26T15:29:08.682Z,96230.18
2018-11-26T15:31:39.706Z,96234.89
2018-11-26T15:34:10.734Z,96235.53
2018-11-26T15:36:41.695Z,96236.55
2018-11-26T15:39:12.745Z,96236.95
2018-11-26T15:41:43.651Z,96240.72
2018-11-26T15:44:14.619Z,96234.73
2018-11-26T15:46:45.792Z,96241.39
2018-11-26T15:49:16.735Z,96248.22
2018-11-26T15:51:47.658Z,96242.19
2018-11-26T15:54:18.582Z,96247.66
2018-11-26T15:56:49.547Z,96242.27
2018-11-26T15:59:20.737Z,96249.44
2018-11-26T16:01:51.680Z,96243.08
2018-11-26T16:04:22.619Z,96251.87
2018-11-26T16:06:53.726Z,96261.63
2018-11-26T16:09:24.811Z,96256.98
2018-11-26T16:11:55.627Z,96259.89
2018-11-26T16:14:26.533Z,96265.38
2018-11-26T16:16:57.525Z,96272.66
2018-11-26T16:19:28.429Z,96269.30
2018-11-26T16:21:59.353Z,96272.27
2018-11-26T16:24:30.275Z,96276.95
2018-11-26T16:27:01.535Z,96281.63
2018-11-26T16:29:32.455Z,96282.90
2018-11-26T16:32:03.488Z,96287.14
2018-11-26T16:34:34.327Z,96284.47
2018-11-26T16:37:05.269Z,96294.69
2018-11-26T16:39:36.198Z,96289.97
2018-11-26T16:42:07.111Z,96296.62
2018-11-26T16:44:38.121Z,96302.09
2018-11-26T16:47:09.063Z,96306.02
2018-11-26T16:49:40.156Z,96299.25
2018-11-26T16:52:11.003Z,96306.80
2018-11-26T16:54:41.838Z,96305.61
2018-11-26T16:57:12.838Z,96310.63
2018-11-26T16:59:43.759Z,96312.30
2018-11-26T17:02:14.701Z,96310.33
2018-11-26T17:04:45.811Z,96309.44
2018-11-26T17:07:16.723Z,96312.81
2018-11-26T17:09:47.839Z,96309.95
2018-11-26T17:12:18.808Z,96312.87
2018-11-26T17:14:49.759Z,96309.81
2018-11-26T17:17:20.682Z,96321.27
2018-11-26T17:19:51.698Z,96326.77
2018-11-26T17:22:22.636Z,96327.94
2018-11-26T17:24:53.602Z,96330.02
2018-11-26T17:27:24.763Z,96330.11
2018-11-26T17:29:55.848Z,96338.12
2018-11-26T17:32:26.895Z,96341.10
2018-11-26T17:34:57.837Z,96340.19
2018-11-26T17:37:29.103Z,96342.44
2018-11-26T17:39:59.971Z,96339.40
2018-11-26T17:42:30.897Z,96351.45
2018-11-26T17:45:01.832Z,96352.72
2018-11-26T17:47:33.194Z,96353.61
2018-11-26T17:50:04.252Z,96353.09
2018-11-26T17:52:35.104Z,96358.22
2018-11-26T17:55:06.539Z,96355.27
2018-11-26T17:57:37.560Z,96359.20
2018-11-26T18:00:22.666Z,96365.13
2018-11-26T18:02:53.588Z,96363.89
2018-11-26T18:05:26.509Z,96370.85
2018-11-26T18:08:14.593Z,96365.30
2018-11-26T18:10:45.536Z,96366.52
2018-11-26T18:13:16.725Z,96372.56
2018-11-26T18:15:47.836Z,96374.67
2018-11-26T18:18:20.181Z,96377.71
2018-11-26T18:20:51.346Z,96377.54
2018-11-26T18:23:22.205Z,96373.31
2018-11-26T18:25:53.341Z,96386.11
2018-11-26T18:28:24.264Z,96386.56
2018-11-26T18:30:55.586Z,96393.40
2018-11-26T18:33:26.507Z,96393.77
2018-11-26T18:35:57.433Z,96396.52
2018-11-26T18:38:28.448Z,96402.34
2018-11-26T18:40:59.373Z,96396.09
2018-11-26T18:43:30.393Z,96398.12
2018-11-26T18:46:01.639Z,96404.91
2018-11-26T18:48:32.563Z,96407.95
2018-11-26T18:51:03.761Z,96412.03
2018-11-26T18:53:34.833Z,96419.95
2018-11-26T18:56:06.107Z,96424.55
2018-11-26T18:58:38.085Z,96424.62
2018-11-26T19:01:10.049Z,96424.64
2018-11-26T19:03:41.259Z,96425.42
2018-11-26T19:06:12.270Z,96427.36
2018-11-26T19:08:43.181Z,96433.34
2018-11-26T19:11:16.573Z,96437.25
2018-11-26T19:14:00.046Z,96436.27
2018-11-26T19:16:37.213Z,96441.48
2018-11-26T19:19:08.409Z,96441.48
2018-11-26T19:21:39.647Z,96439.03
2018-11-26T19:24:10.671Z,96443.00
2018-11-26T19:26:41.707Z,96440.83
2018-11-26T19:29:12.736Z,96440.83
2018-11-26T19:31:43.939Z,96446.17
2018-11-26T19:34:14.792Z,96450.23
2018-11-26T19:36:45.733Z,96456.47
2018-11-26T19:39:16.738Z,96447.19
2018-11-26T19:41:47.666Z,96456.97
2018-11-26T19:44:18.741Z,96453.86
2018-11-26T19:46:49.681Z,96446.54
2018-11-26T19:49:20.777Z,96458.05
2018-11-26T19:51:51.626Z,96455.34
2018-11-26T19:54:22.659Z,96462.81
2018-11-26T19:56:53.658Z,96469.88
2018-11-26T19:59:24.683Z,96476.24
2018-11-26T20:01:55.912Z,96470.78
2018-11-26T20:04:47.726Z,96476.88
2018-11-26T20:07:18.965Z,96477.84
2018-11-26T20:09:50.243Z,96482.86
2018-11-26T20:12:21.097Z,96481.32
2018-11-26T20:14:52.338Z,96486.91
2018-11-26T20:17:23.557Z,96486.31
2018-11-26T20:19:54.520Z,96493.77
2018-11-26T20:22:25.427Z,96499.30
2018-11-26T20:24:56.365Z,96499.27
2018-11-26T20:27:27.460Z,96499.92
2018-11-26T20:29:58.494Z,96500.36
2018-11-26T20:32:30.347Z,96504.75
2018-11-26T20:35:01.278Z,96492.77
2018-11-26T20:37:32.131Z,96501.95
2018-11-26T20:40:03.405Z,96508.24
2018-11-26T20:42:34.256Z,96507.38
2018-11-26T20:45:06.507Z,96514.70
2018-11-26T20:47:37.968Z,96507.07
2018-11-26T20:50:30.704Z,96521.50
2018-11-26T20:53:02.054Z,96525.68
2018-11-26T20:55:33.697Z,96526.75
2018-11-26T20:58:04.663Z,96527.75
2018-11-26T21:00:38.018Z,96528.22
2018-11-26T21:03:11.122Z,96529.96
2018-11-26T21:05:43.063Z,96533.64
2018-11-26T21:08:14.224Z,96532.00
2018-11-26T21:10:45.298Z,96539.10
2018-11-26T21:13:17.067Z,96533.25
2018-11-26T21:15:48.634Z,96537.03
2018-11-26T21:18:19.730Z,96541.25
2018-11-26T21:20:53.941Z,96544.66
2018-11-26T21:23:30.703Z,96546.67
2018-11-26T21:26:03.982Z,96545.10
2018-11-26T21:28:35.028Z,96552.03
2018-11-26T21:31:06.577Z,96546.94
2018-11-26T21:33:37.624Z,96558.83
2018-11-26T21:36:08.895Z,96542.69
2018-11-26T21:38:41.504Z,96553.80
2018-11-26T21:41:12.441Z,96549.12
2018-11-26T21:43:43.296Z,96549.55
2018-11-26T21:46:14.485Z,96547.48
2018-11-26T21:48:45.499Z,96551.45
2018-11-26T21:51:16.685Z,96548.01
2018-11-26T21:53:47.633Z,96549.18
2018-11-26T21:56:18.785Z,96552.59
2018-11-26T21:58:49.633Z,96558.06
2018-11-26T22:01:20.588Z,96554.73
2018-11-26T22:03:52.887Z,96558.66
2018-11-26T22:06:23.705Z,96558.02
2018-11-26T22:08:54.936Z,96563.14
2018-11-26T22:11:30.248Z,96562.38
2018-11-26T22:13:57.843Z,96561.77
2018-11-26T22:16:28.772Z,96565.69
2018-11-26T22:18:59.961Z,96564.75
2018-11-26T22:21:30.993Z,96568.88
2018-11-26T22:24:02.004Z,96566.73
2018-11-26T22:26:33.176Z,96575.84
2018-11-26T22:29:04.378Z,96571.41
2018-11-26T22:31:35.309Z,96573.42
2018-11-26T22:34:06.648Z,96580.45
2018-11-26T22:36:37.729Z,96577.38
2018-11-26T22:39:11.181Z,96580.45
2018-11-26T22:41:42.020Z,96587.73
2018-11-26T22:44:12.977Z,96590.20
2018-11-26T22:46:44.147Z,96595.80
2018-11-26T22:49:15.044Z,96597.54
2018-11-26T22:51:51.306Z,96596.83
2018-11-26T22:54:18.197Z,96607.18
2018-11-26T22:56:49.142Z,96603.92
2018-11-26T22:59:20.186Z,96607.01
2018-11-26T23:01:51.199Z,96606.14
2018-11-26T23:04:22.219Z,96603.30
2018-11-26T23:06:53.386Z,96611.36
2018-11-26T23:09:24.413Z,96606.64
2018-11-26T23:11:55.412Z,96608.69
2018-11-26T23:14:26.558Z,96614.78
2018-11-26T23:16:58.319Z,96615.72
2018-11-26T23:19:29.179Z,96618.20
2018-11-26T23:22:00.022Z,96619.17
2018-11-26T23:24:30.962Z,96618.04
2018-11-26T23:27:02.151Z,96621.81
2018-11-26T23:29:33.105Z,96615.95
2018-11-26T23:32:04.017Z,96618.41
2018-11-26T23:34:34.840Z,96620.38
2018-11-26T23:37:06.412Z,96618.70
2018-11-26T23:39:37.363Z,96619.47
2018-11-26T23:42:08.624Z,96625.83
2018-11-26T23:44:39.721Z,96626.91
2018-11-26T23:47:10.823Z,96632.37
2018-11-26T23:49:41.746Z,96625.87
2018-11-26T23:52:12.670Z,96626.73
2018-11-26T23:54:44.094Z,96630.86
2018-11-26T23:57:15.188Z,96628.02
2018-11-26T23:59:46.015Z,96632.23
